createdAt,value
2019-03-03T00:00:03.057Z,6.37
2019-03-03T00:02:37.849Z,5.87
2019-03-03T00:05:11.912Z,6.07
2019-03-03T00:07:45.044Z,5.63
2019-03-03T00:10:17.984Z,5.60
2019-03-03T00:12:50.888Z,5.50
2019-03-03T00:15:23.671Z,6.23
2019-03-03T00:17:56.659Z,5.87
2019-03-03T00:20:29.516Z,6.03
2019-03-03T00:23:02.427Z,5.50
2019-03-03T00:25:35.307Z,5.63
2019-03-03T00:28:08.098Z,5.50
2019-03-03T00:30:41.123Z,5.63
2019-03-03T00:33:14.159Z,5.03
2019-03-03T00:35:47.212Z,4.90
2019-03-03T00:38:42.368Z,4.93
2019-03-03T00:41:33.717Z,5.00
2019-03-03T00:44:22.854Z,4.70
2019-03-03T00:47:33.415Z,5.23
2019-03-03T00:50:17.259Z,4.63
2019-03-03T00:53:09.782Z,4.17
2019-03-03T00:56:00.167Z,4.40
2019-03-03T00:58:40.989Z,4.20
2019-03-03T01:01:25.159Z,3.73
2019-03-03T01:04:06.327Z,4.30
2019-03-03T01:06:56.800Z,4.13
2019-03-03T01:09:47.832Z,4.07
2019-03-03T01:12:38.894Z,4.77
2019-03-03T01:15:26.950Z,3.57
2019-03-03T01:18:26.114Z,3.73
2019-03-03T01:21:15.105Z,3.67
2019-03-03T01:24:13.359Z,4.20
2019-03-03T01:26:46.365Z,4.00
2019-03-03T01:29:19.128Z,4.20
2019-03-03T01:31:52.123Z,4.30
2019-03-03T01:34:24.913Z,3.90
2019-03-03T01:36:57.815Z,4.00
2019-03-03T01:39:30.859Z,4.50
2019-03-03T01:42:03.741Z,4.20
2019-03-03T01:44:36.724Z,4.23
2019-03-03T01:47:09.692Z,3.97
2019-03-03T01:49:42.536Z,4.60
2019-03-03T01:52:15.439Z,4.37
2019-03-03T01:54:48.679Z,4.10
2019-03-03T01:57:21.513Z,5.00
2019-03-03T01:59:54.374Z,4.50
2019-03-03T02:02:27.334Z,3.13
2019-03-03T02:05:00.578Z,4.13
2019-03-03T02:07:33.364Z,4.17
2019-03-03T02:10:07.340Z,3.70
2019-03-03T02:12:40.294Z,4.00
2019-03-03T02:15:13.998Z,3.57
2019-03-03T02:17:46.854Z,3.87
2019-03-03T02:20:19.730Z,4.50
2019-03-03T02:22:52.524Z,4.63
2019-03-03T02:25:25.463Z,3.77
2019-03-03T02:27:58.560Z,4.50
2019-03-03T02:30:31.768Z,4.47
2019-03-03T02:33:04.721Z,4.00
2019-03-03T02:35:37.709Z,4.20
2019-03-03T02:38:10.756Z,4.37
2019-03-03T02:40:44.176Z,4.77
2019-03-03T02:43:17.025Z,4.27
2019-03-03T02:45:50.290Z,4.70
2019-03-03T02:48:23.135Z,3.73
2019-03-03T02:50:55.955Z,3.50
2019-03-03T02:53:28.838Z,4.83
2019-03-03T02:56:02.090Z,4.70
2019-03-03T02:58:35.275Z,4.40
2019-03-03T03:01:30.946Z,3.73
2019-03-03T03:04:03.821Z,3.67
2019-03-03T03:07:00.375Z,4.53
2019-03-03T03:09:45.165Z,4.23
2019-03-03T03:12:37.456Z,3.77
2019-03-03T03:15:35.714Z,4.13
2019-03-03T03:18:36.938Z,5.00
2019-03-03T03:21:28.957Z,4.13
2019-03-03T03:24:20.182Z,3.70
2019-03-03T03:27:02.619Z,4.13
2019-03-03T03:29:58.999Z,3.83
2019-03-03T03:32:57.634Z,3.90
2019-03-03T03:35:38.632Z,4.07
2019-03-03T03:38:18.401Z,3.77
2019-03-03T03:41:13.548Z,3.93
2019-03-03T03:44:05.532Z,4.20
2019-03-03T03:46:49.872Z,4.27
2019-03-03T03:49:30.761Z,3.93
2019-03-03T03:52:32.133Z,4.17
2019-03-03T03:55:40.481Z,4.23
2019-03-03T03:58:31.593Z,4.50
2019-03-03T04:01:24.060Z,4.70
2019-03-03T04:04:34.628Z,4.67
2019-03-03T04:07:11.921Z,4.20
2019-03-03T04:09:52.909Z,4.40
2019-03-03T04:12:36.760Z,4.40
2019-03-03T04:15:17.449Z,4.63
2019-03-03T04:17:58.788Z,5.40
2019-03-03T04:20:57.024Z,4.37
2019-03-03T04:23:46.755Z,4.40
2019-03-03T04:26:34.985Z,4.50
2019-03-03T04:29:33.329Z,4.00
2019-03-03T04:32:24.826Z,4.47
2019-03-03T04:35:15.805Z,3.97
2019-03-03T04:37:57.377Z,4.20
2019-03-03T04:40:45.837Z,3.90
2019-03-03T04:43:24.138Z,3.70
2019-03-03T04:46:25.609Z,3.93
2019-03-03T04:49:16.439Z,3.70
2019-03-03T04:51:58.433Z,3.93
2019-03-03T04:54:56.871Z,4.37
2019-03-03T04:57:43.053Z,4.10
2019-03-03T05:00:37.947Z,4.50
2019-03-03T05:03:38.209Z,4.10
2019-03-03T05:06:18.482Z,4.07
2019-03-03T05:08:59.938Z,4.63
2019-03-03T05:12:32.128Z,3.30
2019-03-03T05:15:26.883Z,4.53
2019-03-03T05:18:12.226Z,4.20
2019-03-03T05:20:49.948Z,3.93
2019-03-03T05:23:22.941Z,3.43
2019-03-03T05:25:56.080Z,3.97
2019-03-03T05:28:29.021Z,3.97
2019-03-03T05:31:01.743Z,4.07
2019-03-03T05:33:34.738Z,4.00
2019-03-03T05:36:07.806Z,3.90
2019-03-03T05:38:40.686Z,4.27
2019-03-03T05:41:13.564Z,3.93
2019-03-03T05:43:46.583Z,4.17
2019-03-03T05:46:19.342Z,4.13
2019-03-03T05:48:52.223Z,4.10
2019-03-03T05:51:25.274Z,4.13
2019-03-03T05:53:58.304Z,3.87
2019-03-03T05:56:31.283Z,4.30
2019-03-03T05:59:04.107Z,4.20
2019-03-03T06:01:37.268Z,4.23
2019-03-03T06:04:10.164Z,3.97
2019-03-03T06:06:43.895Z,4.10
2019-03-03T06:09:16.722Z,4.53
2019-03-03T06:11:49.702Z,4.13
2019-03-03T06:14:22.677Z,4.27
2019-03-03T06:16:55.685Z,4.20
2019-03-03T06:19:28.513Z,4.00
2019-03-03T06:22:01.313Z,4.17
2019-03-03T06:24:34.333Z,3.87
2019-03-03T06:27:07.368Z,4.17
2019-03-03T06:29:40.453Z,4.37
2019-03-03T06:32:13.300Z,4.50
2019-03-03T06:34:46.146Z,4.13
2019-03-03T06:37:18.874Z,3.73
2019-03-03T06:39:51.835Z,4.70
2019-03-03T06:42:24.697Z,3.93
2019-03-03T06:44:58.128Z,4.30
2019-03-03T06:47:31.032Z,3.90
2019-03-03T06:50:05.112Z,4.97
2019-03-03T06:52:38.188Z,3.87
2019-03-03T06:55:11.364Z,4.60
2019-03-03T06:57:44.103Z,4.83
2019-03-03T07:00:17.004Z,4.10
2019-03-03T07:02:50.070Z,4.40
2019-03-03T07:05:25.944Z,4.90
2019-03-03T07:07:58.736Z,4.53
2019-03-03T07:10:31.583Z,4.60
2019-03-03T07:13:04.383Z,5.47
2019-03-03T07:15:37.392Z,4.83
2019-03-03T07:18:10.436Z,4.83
2019-03-03T07:20:43.284Z,4.87
2019-03-03T07:23:16.063Z,5.47
2019-03-03T07:25:49.351Z,4.13
2019-03-03T07:28:22.184Z,4.93
2019-03-03T07:30:55.084Z,4.43
2019-03-03T07:33:32.669Z,4.60
2019-03-03T07:36:05.528Z,4.97
2019-03-03T07:38:38.399Z,4.30
2019-03-03T07:41:11.165Z,5.07
2019-03-03T07:43:44.194Z,4.67
2019-03-03T07:46:16.984Z,5.50
2019-03-03T07:48:50.138Z,4.83
2019-03-03T07:51:23.159Z,4.80
2019-03-03T07:53:56.170Z,4.53
2019-03-03T07:56:29.321Z,4.90
2019-03-03T07:59:02.455Z,4.57
2019-03-03T08:01:35.651Z,5.40
2019-03-03T08:04:08.866Z,5.30
2019-03-03T08:06:41.694Z,5.00
2019-03-03T08:09:14.771Z,5.30
2019-03-03T08:11:47.911Z,4.70
2019-03-03T08:14:21.005Z,5.07
2019-03-03T08:16:53.926Z,5.20
2019-03-03T08:19:26.942Z,5.17
2019-03-03T08:21:59.786Z,5.33
2019-03-03T08:24:32.821Z,4.97
2019-03-03T08:27:05.889Z,4.23
2019-03-03T08:29:38.850Z,4.60
2019-03-03T08:32:11.696Z,4.47
2019-03-03T08:34:44.686Z,5.10
2019-03-03T08:37:17.577Z,4.60
2019-03-03T08:39:50.572Z,4.60
2019-03-03T08:42:45.819Z,5.03
2019-03-03T08:45:28.405Z,5.27
2019-03-03T08:48:10.637Z,4.23
2019-03-03T08:50:49.615Z,4.43
2019-03-03T08:53:48.236Z,4.47
2019-03-03T08:56:43.500Z,4.10
2019-03-03T08:59:35.286Z,4.20
2019-03-03T09:02:23.812Z,4.17
2019-03-03T09:05:16.601Z,3.73
2019-03-03T09:08:09.804Z,3.80
2019-03-03T09:10:49.215Z,3.50
2019-03-03T09:13:46.381Z,3.33
2019-03-03T09:16:38.907Z,2.35
2019-03-03T09:19:30.177Z,2.43
2019-03-03T09:22:32.440Z,2.50
2019-03-03T09:25:27.430Z,2.53
2019-03-03T09:28:16.627Z,7.83
2019-03-03T09:31:08.885Z,2.83
2019-03-03T09:34:00.175Z,2.30
2019-03-03T09:36:55.560Z,2.60
2019-03-03T09:39:40.257Z,2.37
2019-03-03T09:42:31.292Z,3.00
2019-03-03T09:45:25.226Z,2.13
2019-03-03T09:48:17.542Z,2.30
2019-03-03T09:51:12.855Z,2.57
2019-03-03T09:54:12.517Z,2.53
2019-03-03T09:56:54.312Z,6.27
2019-03-03T09:59:47.186Z,2.77
2019-03-03T10:02:38.073Z,2.60
2019-03-03T10:05:31.787Z,2.40
2019-03-03T10:08:20.609Z,3.03
2019-03-03T10:11:02.197Z,2.37
2019-03-03T10:13:54.857Z,2.70
2019-03-03T10:16:40.012Z,3.03
2019-03-03T10:19:31.227Z,3.23
2019-03-03T10:22:38.930Z,4.00
2019-03-03T10:25:46.332Z,3.53
2019-03-03T10:28:35.918Z,3.20
2019-03-03T10:31:15.902Z,3.70
2019-03-03T10:33:59.187Z,3.63
2019-03-03T10:36:54.878Z,3.90
2019-03-03T10:40:05.592Z,4.30
2019-03-03T10:43:00.614Z,3.80
2019-03-03T10:45:51.533Z,3.47
2019-03-03T10:48:29.558Z,3.73
2019-03-03T10:51:38.592Z,3.53
2019-03-03T10:54:21.018Z,3.60
2019-03-03T10:57:13.171Z,3.17
2019-03-03T11:00:14.472Z,3.50
2019-03-03T11:03:15.882Z,3.73
2019-03-03T11:06:07.283Z,2.60
2019-03-03T11:09:14.954Z,3.07
2019-03-03T11:12:05.048Z,2.80
2019-03-03T11:15:18.536Z,1.97
2019-03-03T11:18:09.902Z,2.33
2019-03-03T11:21:05.157Z,2.23
2019-03-03T11:24:00.559Z,2.13
2019-03-03T11:27:00.144Z,2.90
2019-03-03T11:29:51.083Z,2.37
2019-03-03T11:32:31.767Z,2.50
2019-03-03T11:35:27.459Z,2.57
2019-03-03T11:38:23.045Z,3.20
2019-03-03T11:41:21.233Z,2.90
2019-03-03T11:44:03.950Z,3.03
2019-03-03T11:46:55.232Z,3.10
2019-03-03T11:49:36.537Z,2.60
2019-03-03T11:52:34.848Z,2.43
2019-03-03T11:55:20.769Z,3.97
2019-03-03T11:58:05.374Z,3.30
2019-03-03T12:00:57.696Z,4.73
2019-03-03T12:03:49.018Z,4.93
2019-03-03T12:06:47.453Z,4.33
2019-03-03T12:09:34.508Z,3.47
2019-03-03T12:12:45.238Z,3.60
2019-03-03T12:15:24.564Z,4.07
2019-03-03T12:19:19.993Z,3.90
2019-03-03T12:22:07.862Z,3.27
2019-03-03T12:24:55.324Z,3.60
2019-03-03T12:27:39.562Z,3.60
2019-03-03T12:30:25.677Z,3.80
2019-03-03T12:33:17.965Z,2.67
2019-03-03T12:36:05.495Z,3.17
2019-03-03T12:38:48.439Z,2.53
2019-03-03T12:41:33.433Z,2.77
2019-03-03T12:44:31.895Z,2.53
2019-03-03T12:47:12.063Z,2.70
2019-03-03T12:50:22.871Z,2.73
2019-03-03T12:53:23.968Z,2.37
2019-03-03T12:56:12.415Z,1.90
2019-03-03T12:59:00.865Z,2.10
2019-03-03T13:01:56.091Z,2.10
2019-03-03T13:04:47.219Z,1.97
2019-03-03T13:07:37.223Z,1.97
2019-03-03T13:10:36.394Z,1.70
2019-03-03T13:13:26.077Z,1.85
2019-03-03T13:16:18.571Z,1.63
2019-03-03T13:19:04.902Z,2.43
2019-03-03T13:21:56.000Z,2.17
2019-03-03T13:24:40.376Z,2.10
2019-03-03T13:27:44.779Z,2.03
2019-03-03T13:30:39.687Z,1.65
2019-03-03T13:33:30.943Z,2.03
2019-03-03T13:36:26.864Z,3.40
2019-03-03T13:39:28.236Z,2.30
2019-03-03T13:42:26.344Z,2.10
2019-03-03T13:44:59.634Z,2.10
2019-03-03T13:47:32.416Z,1.87
2019-03-03T13:50:07.090Z,1.92
2019-03-03T13:52:40.015Z,2.65
2019-03-03T13:55:14.426Z,1.77
2019-03-03T13:57:47.539Z,2.15
2019-03-03T14:00:21.431Z,1.70
2019-03-03T14:02:54.727Z,1.85
2019-03-03T14:05:28.934Z,1.60
2019-03-03T14:08:01.849Z,1.50
2019-03-03T14:10:34.806Z,1.92
2019-03-03T14:13:07.914Z,1.80
2019-03-03T14:15:41.144Z,1.60
2019-03-03T14:18:33.490Z,1.72
2019-03-03T14:21:06.427Z,1.67
2019-03-03T14:23:39.536Z,1.70
2019-03-03T14:26:12.900Z,1.70
2019-03-03T14:28:45.914Z,1.95
2019-03-03T14:31:18.801Z,1.72
2019-03-03T14:33:51.796Z,1.80
2019-03-03T14:36:24.957Z,1.62
2019-03-03T14:38:57.809Z,1.80
2019-03-03T14:41:30.711Z,1.90
2019-03-03T14:44:05.502Z,2.00
2019-03-03T14:46:38.316Z,1.82
2019-03-03T14:49:11.116Z,1.87
2019-03-03T14:51:45.130Z,2.02
2019-03-03T14:54:18.475Z,1.80
2019-03-03T14:56:51.532Z,1.77
2019-03-03T14:59:25.328Z,1.87
2019-03-03T15:01:58.292Z,2.47
2019-03-03T15:04:31.285Z,1.90
2019-03-03T15:07:04.254Z,2.35
2019-03-03T15:09:37.110Z,2.17
2019-03-03T15:12:10.382Z,2.12
2019-03-03T15:14:43.192Z,1.87
2019-03-03T15:17:16.234Z,2.60
2019-03-03T15:19:49.186Z,2.55
2019-03-03T15:22:22.201Z,2.52
2019-03-03T15:24:55.956Z,2.33
2019-03-03T15:27:29.836Z,6.00
2019-03-03T15:30:03.166Z,4.60
2019-03-03T15:32:36.366Z,2.62
2019-03-03T15:35:09.483Z,2.62
2019-03-03T15:37:42.327Z,3.02
2019-03-03T15:40:17.811Z,2.70
2019-03-03T15:42:50.747Z,3.80
2019-03-03T15:45:23.966Z,2.50
2019-03-03T15:47:56.976Z,2.95
2019-03-03T15:50:29.961Z,3.15
2019-03-03T15:53:03.187Z,3.35
2019-03-03T15:55:36.432Z,3.33
2019-03-03T15:58:09.189Z,3.27
2019-03-03T16:00:42.347Z,3.15
2019-03-03T16:03:15.436Z,3.65
2019-03-03T16:05:49.000Z,3.27
2019-03-03T16:08:22.055Z,2.95
2019-03-03T16:10:55.201Z,6.58
2019-03-03T16:13:28.158Z,4.03
2019-03-03T16:16:01.003Z,3.87
2019-03-03T16:18:34.946Z,7.00
2019-03-03T16:21:08.983Z,5.33
2019-03-03T16:23:42.142Z,10.05
2019-03-03T16:26:17.366Z,3.95
2019-03-03T16:28:50.252Z,3.70
2019-03-03T16:31:24.230Z,4.65
2019-03-03T16:33:57.090Z,4.12
2019-03-03T16:36:30.096Z,4.03
2019-03-03T16:39:03.907Z,3.72
2019-03-03T16:41:38.817Z,4.35
2019-03-03T16:44:11.767Z,4.08
2019-03-03T16:46:44.712Z,3.92
2019-03-03T16:49:17.742Z,3.50
2019-03-03T16:51:50.587Z,3.85
2019-03-03T16:54:23.469Z,3.37
2019-03-03T16:56:56.242Z,3.37
2019-03-03T16:59:29.192Z,3.98
2019-03-03T17:02:02.146Z,3.70
2019-03-03T17:04:35.334Z,3.52
2019-03-03T17:07:08.593Z,3.15
2019-03-03T17:09:41.447Z,4.25
2019-03-03T17:12:14.433Z,4.12
2019-03-03T17:14:47.356Z,4.08
2019-03-03T17:17:20.601Z,4.15
2019-03-03T17:19:53.524Z,4.53
2019-03-03T17:22:26.572Z,3.55
2019-03-03T17:25:20.027Z,3.95
2019-03-03T17:27:53.113Z,4.17
2019-03-03T17:30:26.186Z,4.50
2019-03-03T17:32:59.343Z,4.10
2019-03-03T17:35:32.147Z,4.47
2019-03-03T17:38:05.058Z,3.90
2019-03-03T17:40:38.218Z,3.90
2019-03-03T17:43:11.154Z,4.58
2019-03-03T17:45:44.055Z,3.80
2019-03-03T17:48:16.867Z,4.35
2019-03-03T17:50:49.757Z,4.25
2019-03-03T17:53:22.575Z,4.50
2019-03-03T17:55:55.924Z,4.45
2019-03-03T17:58:28.873Z,4.35
2019-03-03T18:01:02.365Z,4.60
2019-03-03T18:03:35.859Z,4.17
2019-03-03T18:06:08.971Z,4.08
2019-03-03T18:08:42.039Z,4.10
2019-03-03T18:11:14.950Z,6.35
2019-03-03T18:13:47.903Z,3.83
2019-03-03T18:16:21.014Z,4.37
2019-03-03T18:18:53.880Z,3.95
2019-03-03T18:21:26.988Z,4.22
2019-03-03T18:24:00.171Z,4.10
2019-03-03T18:26:33.267Z,3.95
2019-03-03T18:29:06.308Z,4.60
2019-03-03T18:31:39.668Z,4.22
2019-03-03T18:34:13.222Z,4.20
2019-03-03T18:36:46.075Z,4.40
2019-03-03T18:39:18.998Z,4.12
2019-03-03T18:41:53.038Z,5.00
2019-03-03T18:44:26.154Z,4.42
2019-03-03T18:46:59.103Z,4.25
2019-03-03T18:49:32.275Z,4.20
2019-03-03T18:52:05.200Z,4.22
2019-03-03T18:54:38.974Z,4.00
2019-03-03T18:57:12.123Z,4.67
2019-03-03T18:59:45.139Z,4.15
2019-03-03T19:02:18.438Z,5.20
2019-03-03T19:04:51.309Z,4.55
2019-03-03T19:07:24.264Z,4.83
2019-03-03T19:09:57.464Z,4.20
2019-03-03T19:12:30.579Z,4.20
2019-03-03T19:15:04.766Z,4.42
2019-03-03T19:17:39.329Z,4.37
2019-03-03T19:20:13.644Z,4.22
2019-03-03T19:22:47.034Z,3.98
2019-03-03T19:25:19.931Z,4.30
2019-03-03T19:27:53.000Z,4.47
2019-03-03T19:30:26.314Z,4.28
2019-03-03T19:33:21.603Z,4.58
2019-03-03T19:35:54.542Z,3.70
2019-03-03T19:38:29.877Z,4.58
2019-03-03T19:41:02.751Z,4.70
2019-03-03T19:43:35.884Z,4.62
2019-03-03T19:46:10.000Z,4.67
2019-03-03T19:48:43.046Z,4.25
2019-03-03T19:51:16.054Z,4.87
2019-03-03T19:53:48.989Z,4.78
2019-03-03T19:56:21.965Z,4.15
2019-03-03T19:58:55.211Z,5.08
2019-03-03T20:01:28.236Z,4.72
2019-03-03T20:04:01.241Z,4.87
2019-03-03T20:06:35.222Z,5.12
2019-03-03T20:09:08.378Z,5.53
2019-03-03T20:11:45.506Z,4.65
2019-03-03T20:14:18.212Z,4.65
2019-03-03T20:16:51.419Z,4.62
2019-03-03T20:19:24.666Z,4.30
2019-03-03T20:21:57.575Z,5.05
2019-03-03T20:24:30.567Z,4.05
2019-03-03T20:27:03.566Z,4.53
2019-03-03T20:29:36.656Z,3.95
2019-03-03T20:32:09.531Z,3.72
2019-03-03T20:34:42.610Z,3.70
2019-03-03T20:37:16.577Z,3.60
2019-03-03T20:39:49.532Z,3.83
2019-03-03T20:42:22.465Z,3.90
2019-03-03T20:44:55.552Z,3.50
2019-03-03T20:47:28.632Z,3.70
2019-03-03T20:50:01.690Z,3.50
2019-03-03T20:52:35.201Z,3.40
2019-03-03T20:55:10.376Z,3.30
2019-03-03T20:57:43.376Z,3.62
2019-03-03T21:00:21.016Z,4.03
2019-03-03T21:02:54.624Z,3.50
2019-03-03T21:05:27.738Z,3.40
2019-03-03T21:08:00.931Z,3.47
2019-03-03T21:10:34.161Z,2.98
2019-03-03T21:13:08.412Z,3.10
2019-03-03T21:15:41.775Z,2.75
2019-03-03T21:18:14.827Z,3.72
2019-03-03T21:20:47.731Z,3.20
2019-03-03T21:23:20.711Z,2.95
2019-03-03T21:25:53.560Z,2.98
2019-03-03T21:28:26.423Z,2.85
2019-03-03T21:30:59.507Z,2.80
2019-03-03T21:33:32.443Z,2.90
2019-03-03T21:36:05.394Z,3.02
2019-03-03T21:38:39.386Z,3.15
2019-03-03T21:41:13.114Z,3.17
2019-03-03T21:43:46.132Z,3.52
2019-03-03T21:46:19.206Z,2.70
2019-03-03T21:48:52.333Z,3.30
2019-03-03T21:51:25.598Z,3.37
2019-03-03T21:53:58.601Z,3.20
2019-03-03T21:56:31.357Z,3.00
2019-03-03T21:59:04.782Z,3.40
2019-03-03T22:01:39.071Z,3.00
2019-03-03T22:04:12.072Z,3.00
2019-03-03T22:06:44.866Z,8.90
2019-03-03T22:09:18.791Z,3.25
2019-03-03T22:11:51.836Z,3.12
2019-03-03T22:14:24.874Z,2.95
2019-03-03T22:16:57.822Z,2.85
2019-03-03T22:19:30.833Z,2.67
2019-03-03T22:22:04.097Z,3.05
2019-03-03T22:24:37.006Z,3.17
2019-03-03T22:27:10.603Z,3.07
2019-03-03T22:29:43.535Z,3.10
2019-03-03T22:32:17.467Z,2.62
2019-03-03T22:34:50.408Z,3.55
2019-03-03T22:37:23.322Z,3.10
2019-03-03T22:39:56.389Z,2.45
2019-03-03T22:42:29.588Z,3.72
2019-03-03T22:45:03.748Z,3.08
2019-03-03T22:47:36.715Z,3.10
2019-03-03T22:50:10.763Z,3.58
2019-03-03T22:52:43.658Z,3.00
2019-03-03T22:55:17.358Z,3.35
2019-03-03T22:57:50.539Z,3.33
2019-03-03T23:00:50.008Z,3.02
2019-03-03T23:03:56.127Z,3.17
2019-03-03T23:06:33.537Z,3.15
2019-03-03T23:09:48.330Z,2.80
2019-03-03T23:12:38.798Z,3.42
2019-03-03T23:15:29.192Z,3.37
2019-03-03T23:18:50.002Z,3.25
2019-03-03T23:22:23.050Z,3.85
2019-03-03T23:25:32.799Z,3.70
2019-03-03T23:28:07.431Z,3.50
2019-03-03T23:30:40.595Z,4.12
2019-03-03T23:33:13.403Z,3.65
2019-03-03T23:35:46.499Z,3.35
2019-03-03T23:38:19.393Z,3.52
2019-03-03T23:40:52.442Z,3.02
2019-03-03T23:43:25.527Z,3.70
2019-03-03T23:46:00.039Z,3.45
2019-03-03T23:48:32.907Z,3.30
2019-03-03T23:51:05.815Z,3.25
2019-03-03T23:53:39.110Z,3.50
2019-03-03T23:56:12.179Z,3.10
2019-03-03T23:58:45.263Z,2.98
